createdAt,value
2022-11-27T17:49:43.518Z,101582.38
2022-11-27T17:52:10.482Z,101579.88
2022-11-27T17:54:37.684Z,101582.59
2022-11-27T17:57:05.184Z,101577.41
2022-11-27T17:59:31.840Z,101574.69
2022-11-27T18:01:58.515Z,101573.88
2022-11-27T18:04:25.325Z,101584.97
2022-11-27T18:09:37.432Z,101589.44
2022-11-27T18:12:06.352Z,101590.94
2022-11-27T18:14:33.347Z,101589.97
2022-11-27T18:17:04.613Z,101590.03
2022-11-27T18:19:31.898Z,101581.47
2022-11-27T18:22:00.104Z,101583.38
2022-11-27T18:24:27.024Z,101583.34
2022-11-27T18:27:10.125Z,101583.19
2022-11-27T18:29:45.003Z,101585.84
2022-11-27T18:32:13.017Z,101578.06
2022-11-27T18:34:49.348Z,101582.38
2022-11-27T18:37:16.088Z,101585.03
2022-11-27T20:45:20.586Z,101554.53
2022-11-27T20:47:49.403Z,101555.41
2022-11-27T20:50:16.125Z,101565.72
2022-11-27T20:52:43.001Z,101555.34
2022-11-27T20:55:09.853Z,101559.53
2022-11-27T20:57:43.748Z,101555.31
2022-11-27T21:00:11.024Z,101555.53
2022-11-27T21:02:44.085Z,101553.84
2022-11-27T21:05:10.792Z,101551.16
2022-11-27T21:07:39.097Z,101553.81
2022-11-27T21:10:11.442Z,101550.38
2022-11-27T21:12:40.949Z,101534.09
2022-11-27T21:15:10.861Z,101536.72
2022-11-27T21:17:39.067Z,101535.09
2022-11-27T21:20:07.804Z,101535.25
2022-11-27T21:22:34.572Z,101526.63
2022-11-27T21:25:01.371Z,101522.50
2022-11-27T21:27:29.235Z,101534.50
2022-11-27T21:30:09.539Z,101534.56
2022-11-27T21:32:36.289Z,101522.53
2022-11-27T21:35:03.311Z,101523.41
2022-11-27T21:37:30.137Z,101524.13
2022-11-27T21:39:56.974Z,101525.91
2022-11-27T21:42:24.189Z,101527.78
2022-11-27T21:44:51.435Z,101524.22
2022-11-27T21:47:19.073Z,101525.28
2022-11-27T21:49:45.743Z,101528.69
2022-11-27T21:52:12.997Z,101523.53
2022-11-27T21:54:42.290Z,101532.06
2022-11-27T21:57:09.167Z,101531.38
2022-11-27T21:59:35.840Z,101517.63
2022-11-27T22:02:02.517Z,101528.69
2022-11-27T22:04:29.175Z,101525.13
2022-11-27T22:06:55.909Z,101527.59
2022-11-27T22:09:22.632Z,101514.66
2022-11-27T22:11:49.463Z,101525.72
2022-11-27T22:14:16.402Z,101513.75
2022-11-27T22:16:45.900Z,101522.41
2022-11-27T22:19:14.419Z,101525.91
2022-11-27T22:21:41.283Z,101532.88
2022-11-27T22:24:12.214Z,101525.19
2022-11-27T22:26:43.702Z,101531.22
2022-11-27T22:29:10.464Z,101526.97
2022-11-27T22:31:37.586Z,101531.28
2022-11-27T22:34:04.419Z,101531.56
2022-11-27T22:36:33.387Z,101527.97
2022-11-27T22:39:06.123Z,101528.88
2022-11-27T22:41:36.601Z,101527.97
2022-11-27T22:44:14.145Z,101525.28
2022-11-27T22:46:42.497Z,101517.63
2022-11-27T22:49:12.924Z,101523.75
2022-11-27T22:51:40.408Z,101516.78
2022-11-27T22:54:10.331Z,101527.03
2022-11-27T22:56:38.682Z,101516.56
2022-11-27T23:01:57.436Z,101511.34
2022-11-27T23:04:38.684Z,101515.72
2022-11-27T23:07:06.720Z,101516.63
2022-11-27T23:09:33.768Z,101512.38
2022-11-27T23:12:00.897Z,101509.03
2022-11-27T23:14:29.629Z,101507.25
2022-11-27T23:16:56.744Z,101512.44
2022-11-27T23:19:23.589Z,101509.69
2022-11-27T23:21:50.518Z,101506.38
2022-11-27T23:24:17.515Z,101508.84
2022-11-27T23:26:45.894Z,101508.06
2022-11-27T23:29:14.133Z,101508.88
2022-11-27T23:31:41.151Z,101508.00
2022-11-27T23:34:11.113Z,101508.97
2022-11-27T23:36:38.692Z,101508.88
2022-11-27T23:39:07.235Z,101502.19
2022-11-27T23:41:34.369Z,101502.19
2022-11-27T23:44:02.172Z,101498.09
2022-11-27T23:46:32.706Z,101499.78
2022-11-27T23:49:00.775Z,101482.56
2022-11-27T23:51:30.835Z,101493.72
2022-11-27T23:53:58.529Z,101489.34
2022-11-27T23:56:28.595Z,101492.00
2022-11-27T23:58:56.563Z,101503.25
